Time;durP1;ratioP1;P1;durP2;ratioP2;P2;SDS_P1;SDS_P2;PMS_P1;PMS_P2;Temp;Humidity;BMP_temperature;BMP_pressure;BME280_temperature;BME280_humidity;BME280_pressure;Samples;Min_cycle;Max_cycle;Signal;HPM_P1;HPM_P2
2021/01/10 00:00:28;;;;;;;4.32;2.80;;;16.20;46.80;;;;;;6085814;23;20465;-79
2021/01/10 00:02:56;;;;;;;4.43;3.10;;;16.30;46.60;;;;;;6109296;23;20136;-80
2021/01/10 00:05:28;;;;;;;4.82;2.80;;;16.30;46.70;;;;;;6110791;23;20191;-80
2021/01/10 00:07:56;;;;;;;4.45;2.92;;;16.30;46.60;;;;;;6136626;23;20140;-80
2021/01/10 00:10:22;;;;;;;4.57;3.03;;;16.20;46.70;;;;;;6109483;23;20136;-80
2021/01/10 00:12:49;;;;;;;4.47;3.17;;;16.20;46.70;;;;;;6135228;23;20152;-80
2021/01/10 00:15:17;;;;;;;5.82;3.17;;;16.20;46.70;;;;;;6135883;23;20139;-79
2021/01/10 00:17:45;;;;;;;3.85;3.00;;;16.20;46.80;;;;;;6110176;23;20627;-80
2021/01/10 00:20:20;;;;;;;4.68;3.30;;;16.20;46.80;;;;;;6110002;23;20129;-80
2021/01/10 00:23:06;;;;;;;3.90;3.10;;;16.20;46.70;;;;;;6108727;23;20135;-80
2021/01/10 00:25:34;;;;;;;4.90;3.20;;;16.20;46.70;;;;;;6132950;23;20143;-80
2021/01/10 00:28:00;;;;;;;4.40;3.00;;;16.20;46.70;;;;;;6136003;23;20167;-80
2021/01/10 00:30:27;;;;;;;5.43;3.40;;;16.30;46.80;;;;;;6135802;23;20136;-80
2021/01/10 00:33:02;;;;;;;4.40;3.00;;;16.20;46.80;;;;;;6136397;23;20468;-80
2021/01/10 00:35:28;;;;;;;4.53;3.00;;;16.20;46.70;;;;;;6135851;23;20187;-80
2021/01/10 00:37:55;;;;;;;4.15;3.17;;;16.20;46.70;;;;;;6136725;23;20192;-80
2021/01/10 00:40:23;;;;;;;4.75;3.30;;;16.30;46.70;;;;;;6110284;23;20133;-80
2021/01/10 00:42:50;;;;;;;6.18;3.10;;;16.20;46.60;;;;;;6136496;23;20137;-80
2021/01/10 00:45:17;;;;;;;5.07;3.22;;;16.20;46.60;;;;;;6135817;23;20136;-80
2021/01/10 00:47:54;;;;;;;4.32;3.10;;;16.40;46.40;;;;;;6136442;23;20132;-80
2021/01/10 00:50:20;;;;;;;6.40;3.38;;;16.40;46.20;;;;;;6136440;23;20155;-80
2021/01/10 00:52:46;;;;;;;4.65;2.90;;;16.40;46.20;;;;;;6136509;23;20215;-80
2021/01/10 00:55:13;;;;;;;5.10;3.05;;;16.40;46.30;;;;;;6136032;23;20213;-81
2021/01/10 00:57:40;;;;;;;5.28;3.00;;;16.40;46.30;;;;;;6136832;23;20171;-80
2021/01/10 01:00:11;;;;;;;4.40;3.00;;;16.30;46.50;;;;;;6136510;23;20136;-80
2021/01/10 01:02:38;;;;;;;4.20;3.15;;;16.30;46.40;;;;;;6109383;23;20132;-80
2021/01/10 01:05:06;;;;;;;3.95;2.95;;;16.40;46.30;;;;;;6110134;23;20140;-80
2021/01/10 01:07:33;;;;;;;4.47;3.40;;;16.40;46.20;;;;;;6136222;23;20139;-80
2021/01/10 01:10:00;;;;;;;4.32;3.28;;;16.40;46.20;;;;;;6136675;23;20212;-80
2021/01/10 01:12:28;;;;;;;4.50;2.83;;;16.40;46.20;;;;;;6136032;23;20250;-80
2021/01/10 01:15:02;;;;;;;4.63;2.90;;;16.40;46.00;;;;;;6135036;23;20132;-80
2021/01/10 01:17:37;;;;;;;3.92;2.88;;;16.40;46.30;;;;;;6136430;23;20455;-80
2021/01/10 01:20:11;;;;;;;4.30;2.90;;;16.40;46.30;;;;;;6111399;23;20127;-80
2021/01/10 01:22:38;;;;;;;4.20;2.88;;;16.40;46.30;;;;;;6141281;23;20136;-80
2021/01/10 01:25:06;;;;;;;3.67;2.80;;;16.40;46.30;;;;;;6140811;23;20517;-81
2021/01/10 01:27:36;;;;;;;4.60;2.78;;;16.40;46.20;;;;;;6116040;23;20176;-80
2021/01/10 01:30:04;;;;;;;4.28;3.10;;;16.40;46.20;;;;;;6142284;23;20147;-80
2021/01/10 01:32:30;;;;;;;3.58;2.80;;;16.40;46.20;;;;;;6142573;23;20175;-80
2021/01/10 01:34:56;;;;;;;4.57;3.33;;;16.40;46.10;;;;;;6114794;23;20156;-80
2021/01/10 01:37:22;;;;;;;4.30;3.00;;;16.40;46.00;;;;;;6142484;23;20191;-81
2021/01/10 01:39:57;;;;;;;3.85;3.00;;;16.40;46.00;;;;;;6142237;23;20137;-80
2021/01/10 01:42:23;;;;;;;3.70;2.60;;;16.40;46.00;;;;;;6142147;23;20135;-80
2021/01/10 01:44:50;;;;;;;4.63;3.20;;;16.40;46.20;;;;;;6142390;23;20144;-80
2021/01/10 01:47:25;;;;;;;4.18;3.03;;;16.30;46.30;;;;;;6092163;23;20232;-80
2021/01/10 01:50:00;;;;;;;3.92;2.92;;;16.40;46.00;;;;;;6116282;23;20142;-80
2021/01/10 01:52:27;;;;;;;3.35;2.90;;;16.40;45.90;;;;;;6141823;23;20222;-80
2021/01/10 01:54:53;;;;;;;4.35;2.88;;;16.40;46.00;;;;;;6091820;23;20568;-80
2021/01/10 01:57:28;;;;;;;4.00;2.90;;;16.40;46.10;;;;;;6028900;23;20161;-80
2021/01/10 01:59:56;;;;;;;4.43;2.70;;;16.40;46.10;;;;;;6028782;23;20209;-81
2021/01/10 02:02:22;;;;;;;3.92;2.92;;;16.40;46.10;;;;;;6004838;23;20218;-79
2021/01/10 02:05:12;;;;;;;3.97;2.92;;;16.40;46.10;;;;;;6053086;23;20169;-80
2021/01/10 02:07:51;;;;;;;3.53;2.90;;;16.40;46.10;;;;;;6025421;23;20154;-80
2021/01/10 02:10:18;;;;;;;3.67;2.83;;;16.40;46.00;;;;;;6028744;23;20166;-80
2021/01/10 02:12:52;;;;;;;3.95;2.88;;;16.50;45.90;;;;;;6028333;23;20181;-80
2021/01/10 02:15:33;;;;;;;3.90;2.90;;;16.40;45.90;;;;;;6004431;23;20151;-80
2021/01/10 02:18:00;;;;;;;5.20;2.97;;;16.40;46.10;;;;;;6028515;23;20150;-80
2021/01/10 02:20:28;;;;;;;4.40;2.80;;;16.40;46.10;;;;;;6029157;23;20142;-80
2021/01/10 02:23:23;;;;;;;3.97;2.80;;;16.40;46.00;;;;;;6030032;23;20237;-80
2021/01/10 02:25:58;;;;;;;4.55;2.90;;;16.50;45.80;;;;;;6044862;23;20154;-80
2021/01/10 02:28:26;;;;;;;3.53;2.75;;;16.40;46.00;;;;;;6101553;23;20602;-80
2021/01/10 02:30:53;;;;;;;3.42;2.65;;;16.40;46.10;;;;;;6091202;23;20186;-80
2021/01/10 02:33:24;;;;;;;3.60;2.80;;;16.40;46.10;;;;;;6115386;23;20128;-80
2021/01/10 02:35:50;;;;;;;4.70;2.63;;;16.30;46.20;;;;;;6140931;23;20188;-81
2021/01/10 02:38:34;;;;;;;3.15;2.67;;;16.30;46.30;;;;;;6091714;23;20178;-80
2021/01/10 02:41:25;;;;;;;2.78;2.45;;;16.40;46.00;;;;;;6141994;23;20152;-80
2021/01/10 02:44:14;;;;;;;3.90;3.08;;;16.40;46.00;;;;;;6141734;23;20151;-80
2021/01/10 02:46:40;;;;;;;4.35;2.53;;;16.30;46.00;;;;;;6115677;23;20137;-80
2021/01/10 02:49:07;;;;;;;5.07;3.03;;;16.40;46.00;;;;;;6115857;23;20140;-81
2021/01/10 02:51:34;;;;;;;2.97;2.40;;;16.30;46.00;;;;;;6140952;23;20198;-81
2021/01/10 02:54:00;;;;;;;5.35;3.10;;;16.40;45.70;;;;;;6141950;23;20152;-80
2021/01/10 02:56:30;;;;;;;3.50;2.72;;;16.40;45.90;;;;;;6115823;23;20140;-80
2021/01/10 02:58:57;;;;;;;3.80;2.80;;;16.50;45.80;;;;;;6115677;23;20137;-81
2021/01/10 03:01:24;;;;;;;4.28;3.08;;;16.40;45.90;;;;;;6115164;23;20136;-81
2021/01/10 03:03:51;;;;;;;4.15;2.78;;;16.40;46.00;;;;;;6114750;23;20132;-81
2021/01/10 03:06:19;;;;;;;4.32;2.70;;;16.40;46.00;;;;;;6114728;23;20198;-80
2021/01/10 03:08:45;;;;;;;3.58;2.72;;;16.40;45.80;;;;;;6115679;23;20133;-81
2021/01/10 03:11:11;;;;;;;3.60;2.85;;;16.50;45.70;;;;;;6115911;23;20168;-80
2021/01/10 03:13:38;;;;;;;3.75;2.72;;;16.40;45.90;;;;;;6114664;23;20132;-80
2021/01/10 03:16:05;;;;;;;3.38;2.60;;;16.40;46.00;;;;;;6115558;23;20132;-81
2021/01/10 03:18:31;;;;;;;3.17;2.47;;;16.40;46.00;;;;;;6141531;23;20185;-80
2021/01/10 03:20:57;;;;;;;3.58;2.85;;;16.40;45.70;;;;;;6114733;23;20160;-80
2021/01/10 03:23:24;;;;;;;3.80;2.67;;;16.40;45.80;;;;;;6141543;23;20137;-80
2021/01/10 03:25:51;;;;;;;4.00;2.63;;;16.40;45.70;;;;;;6115201;23;20136;-80
2021/01/10 03:28:17;;;;;;;3.55;2.50;;;16.40;45.70;;;;;;6115030;23;20150;-80
2021/01/10 03:30:44;;;;;;;3.95;2.58;;;16.40;45.70;;;;;;6116319;23;20172;-80
2021/01/10 03:33:10;;;;;;;2.70;2.30;;;16.40;45.80;;;;;;6115247;23;20132;-80
2021/01/10 03:35:36;;;;;;;3.58;2.60;;;16.40;45.80;;;;;;6114973;23;20203;-81
2021/01/10 03:38:05;;;;;;;3.72;2.78;;;16.50;45.70;;;;;;6115301;23;20143;-80
2021/01/10 03:40:32;;;;;;;3.22;2.50;;;16.40;45.70;;;;;;6140774;23;20139;-80
2021/01/10 03:43:07;;;;;;;3.35;2.58;;;16.40;45.90;;;;;;6140811;23;20140;-80
2021/01/10 03:45:35;;;;;;;4.07;2.78;;;16.40;45.80;;;;;;6140251;23;20191;-80
2021/01/10 03:48:02;;;;;;;3.22;2.45;;;16.40;45.80;;;;;;6141706;23;20139;-80
2021/01/10 03:50:29;;;;;;;4.53;2.63;;;16.40;45.90;;;;;;6140530;23;20141;-80
2021/01/10 03:52:55;;;;;;;5.05;2.67;;;16.40;45.90;;;;;;6140519;23;20133;-80
2021/01/10 03:55:22;;;;;;;2.83;2.40;;;16.30;46.00;;;;;;6090758;23;20179;-80
2021/01/10 03:57:49;;;;;;;4.97;2.70;;;16.30;46.00;;;;;;6141029;23;20129;-80
2021/01/10 04:00:16;;;;;;;2.65;2.28;;;16.40;45.70;;;;;;6140923;23;20129;-80
2021/01/10 04:02:43;;;;;;;3.17;2.33;;;16.40;45.70;;;;;;6140698;23;20140;-80
2021/01/10 04:05:18;;;;;;;2.72;2.28;;;16.40;45.70;;;;;;6139897;23;20141;-80
2021/01/10 04:07:52;;;;;;;2.85;2.42;;;16.40;45.70;;;;;;6140364;23;20155;-80
2021/01/10 04:10:27;;;;;;;4.32;2.80;;;16.40;45.70;;;;;;6140932;23;20135;-80
2021/01/10 04:13:01;;;;;;;3.20;2.55;;;16.40;45.60;;;;;;6115546;23;20167;-80
2021/01/10 04:15:28;;;;;;;3.72;2.65;;;16.40;45.70;;;;;;6090476;23;20149;-80
2021/01/10 04:17:54;;;;;;;3.50;2.53;;;16.40;45.70;;;;;;6090740;23;20200;-80
2021/01/10 04:20:21;;;;;;;3.63;2.35;;;16.40;45.70;;;;;;6090575;23;20140;-80
2021/01/10 04:22:48;;;;;;;3.05;2.47;;;16.30;45.80;;;;;;6090323;23;20147;-80
2021/01/10 04:25:22;;;;;;;3.35;2.28;;;16.30;45.90;;;;;;6115304;23;20143;-81
2021/01/10 04:27:51;;;;;;;2.95;2.28;;;16.30;45.90;;;;;;6090523;23;20147;-80
2021/01/10 04:30:18;;;;;;;2.75;2.50;;;16.40;45.70;;;;;;6091172;23;20280;-80
2021/01/10 04:32:44;;;;;;;3.25;2.50;;;16.40;45.80;;;;;;6115643;23;20160;-81
2021/01/10 04:35:10;;;;;;;3.10;2.60;;;16.40;45.70;;;;;;6090336;23;20168;-80
2021/01/10 04:37:45;;;;;;;3.00;2.50;;;16.40;45.60;;;;;;6090663;23;20140;-80
2021/01/10 04:40:14;;;;;;;2.45;2.25;;;16.40;45.70;;;;;;6090360;23;20144;-81
2021/01/10 04:42:40;;;;;;;2.40;2.20;;;16.50;45.60;;;;;;6114097;23;20569;-80
2021/01/10 04:45:09;;;;;;;2.78;2.10;;;16.40;45.60;;;;;;6139694;23;20194;-80
2021/01/10 04:47:35;;;;;;;3.58;2.65;;;16.50;45.50;;;;;;6140412;23;20141;-80
2021/01/10 04:50:02;;;;;;;2.90;2.15;;;16.40;45.50;;;;;;6090094;23;20480;-80
2021/01/10 04:52:28;;;;;;;3.13;2.30;;;16.50;45.40;;;;;;6139857;23;20168;-80
2021/01/10 04:54:55;;;;;;;4.10;2.75;;;16.50;45.30;;;;;;6115579;23;20144;-80
2021/01/10 04:57:22;;;;;;;3.10;2.50;;;16.50;45.50;;;;;;6116715;23;20133;-80
2021/01/10 04:59:50;;;;;;;3.03;2.40;;;16.50;45.40;;;;;;6113366;23;20140;-80
2021/01/10 05:02:27;;;;;;;2.65;2.28;;;16.60;45.30;;;;;;6137798;23;20611;-80
2021/01/10 05:04:54;;;;;;;2.47;2.28;;;16.50;45.30;;;;;;6111849;23;20136;-80
2021/01/10 05:07:31;;;;;;;3.05;2.53;;;16.50;45.40;;;;;;6138336;23;20565;-80
2021/01/10 05:09:58;;;;;;;3.17;2.58;;;16.50;45.30;;;;;;6112279;23;20139;-81
2021/01/10 05:12:24;;;;;;;2.58;2.15;;;16.50;45.20;;;;;;6137475;23;20604;-80
2021/01/10 05:14:50;;;;;;;3.05;2.38;;;16.50;45.30;;;;;;6137764;23;20192;-81
2021/01/10 05:17:20;;;;;;;3.55;2.35;;;16.40;45.40;;;;;;6138170;23;20160;-80
2021/01/10 05:19:50;;;;;;;2.60;2.30;;;16.40;45.40;;;;;;6137372;23;20136;-80
2021/01/10 05:22:16;;;;;;;2.80;2.50;;;16.50;45.40;;;;;;6136880;23;20536;-80
2021/01/10 05:24:48;;;;;;;2.78;2.35;;;16.40;45.40;;;;;;6138019;23;20144;-81
2021/01/10 05:27:14;;;;;;;3.00;2.30;;;16.40;45.40;;;;;;6137620;23;20213;-80
2021/01/10 05:29:45;;;;;;;3.22;2.47;;;16.40;45.40;;;;;;6087458;23;20151;-80
2021/01/10 05:32:12;;;;;;;2.95;2.40;;;16.50;45.40;;;;;;6111550;23;20165;-81
2021/01/10 05:34:39;;;;;;;2.55;2.28;;;16.50;45.30;;;;;;6138188;23;20191;-80
2021/01/10 05:37:20;;;;;;;3.40;2.35;;;16.60;45.30;;;;;;6106692;23;20347;-81
2021/01/10 05:39:46;;;;;;;3.15;2.60;;;16.50;45.20;;;;;;6106333;23;20573;-80
2021/01/10 05:42:14;;;;;;;2.95;2.20;;;16.50;45.30;;;;;;6105737;23;20141;-80
2021/01/10 05:44:44;;;;;;;2.85;2.50;;;16.50;45.30;;;;;;6107459;23;20148;-80
2021/01/10 05:47:11;;;;;;;3.47;2.30;;;16.40;45.40;;;;;;6108574;23;20144;-81
2021/01/10 05:49:55;;;;;;;3.45;2.35;;;16.50;45.40;;;;;;6107339;23;20141;-80
2021/01/10 05:52:22;;;;;;;3.30;2.17;;;16.40;45.40;;;;;;6107731;23;20168;-80
2021/01/10 05:54:50;;;;;;;2.53;2.30;;;16.40;45.40;;;;;;6106429;23;20134;-80
2021/01/10 05:57:17;;;;;;;2.85;2.28;;;16.50;45.30;;;;;;6107702;23;20212;-80
2021/01/10 05:59:50;;;;;;;3.33;2.38;;;16.50;45.10;;;;;;6107202;23;20144;-80
2021/01/10 06:02:36;;;;;;;2.60;2.10;;;16.40;45.30;;;;;;6109081;23;20140;-81
2021/01/10 06:05:10;;;;;;;2.33;2.10;;;16.40;45.30;;;;;;6107542;23;20137;-80
2021/01/10 06:07:37;;;;;;;3.03;2.22;;;16.40;45.30;;;;;;6107613;23;20138;-80
2021/01/10 06:10:06;;;;;;;2.70;2.30;;;16.40;45.50;;;;;;6109450;23;20141;-82
2021/01/10 06:12:33;;;;;;;3.03;2.40;;;16.50;45.20;;;;;;6108624;23;20620;-80
2021/01/10 06:15:12;;;;;;;4.10;2.30;;;16.60;45.10;;;;;;6106940;23;20137;-80
2021/01/10 06:18:01;;;;;;;3.50;2.17;;;16.60;45.10;;;;;;6108752;23;20145;-81
2021/01/10 06:20:29;;;;;;;4.60;2.58;;;16.60;45.20;;;;;;6104820;23;20228;-80
2021/01/10 06:22:57;;;;;;;6.38;2.13;;;16.60;45.10;;;;;;6107160;23;20224;-80
2021/01/10 06:25:25;;;;;;;2.60;2.10;;;16.60;45.20;;;;;;6107707;23;20477;-80
2021/01/10 06:28:12;;;;;;;2.90;2.25;;;16.50;45.40;;;;;;6107922;23;20207;-80
2021/01/10 06:30:41;;;;;;;3.28;2.30;;;16.40;45.40;;;;;;6109728;23;20148;-80
2021/01/10 06:33:12;;;;;;;2.55;2.10;;;16.50;45.40;;;;;;6107647;23;20147;-80
2021/01/10 06:35:39;;;;;;;3.80;2.30;;;16.60;45.30;;;;;;6089286;23;20196;-80
2021/01/10 06:38:06;;;;;;;3.08;2.30;;;16.50;45.40;;;;;;6138422;23;20151;-80
2021/01/10 06:40:34;;;;;;;2.58;2.10;;;16.40;45.40;;;;;;6138237;23;20129;-80
2021/01/10 06:43:03;;;;;;;3.72;2.20;;;16.50;45.40;;;;;;6138126;23;20132;-80
2021/01/10 06:45:38;;;;;;;2.60;2.10;;;16.50;45.40;;;;;;6112025;23;20132;-79
2021/01/10 06:48:07;;;;;;;2.45;2.00;;;16.50;45.50;;;;;;6111686;23;20136;-80
2021/01/10 06:50:33;;;;;;;2.50;2.10;;;16.50;45.40;;;;;;6137521;23;20140;-81
2021/01/10 06:53:05;;;;;;;2.40;2.10;;;16.50;45.30;;;;;;6137845;23;20159;-79
2021/01/10 06:55:31;;;;;;;2.70;2.17;;;16.50;45.40;;;;;;6112100;23;20129;-80
2021/01/10 06:57:56;;;;;;;2.35;2.08;;;16.50;45.30;;;;;;6111973;23;20147;-80
2021/01/10 07:00:24;;;;;;;2.72;2.10;;;16.50;45.40;;;;;;6087797;23;20132;-80
2021/01/10 07:03:08;;;;;;;2.80;2.25;;;16.50;45.40;;;;;;6137331;23;20136;-80
2021/01/10 07:06:01;;;;;;;3.20;2.30;;;16.50;45.30;;;;;;6137438;23;20212;-82
2021/01/10 07:09:05;;;;;;;2.58;2.00;;;16.50;45.50;;;;;;6138717;23;20143;-80
2021/01/10 07:11:33;;;;;;;3.03;2.10;;;16.50;45.30;;;;;;6131664;23;20179;-80
2021/01/10 07:13:59;;;;;;;2.53;2.10;;;16.50;45.30;;;;;;6137075;23;20175;-80
2021/01/10 07:16:26;;;;;;;3.72;2.05;;;16.50;45.30;;;;;;6137257;23;20133;-80
2021/01/10 07:18:58;;;;;;;3.10;2.10;;;16.50;45.40;;;;;;6110902;23;20216;-80
2021/01/10 07:21:48;;;;;;;2.28;2.08;;;16.50;45.50;;;;;;6137095;23;20191;-80
2021/01/10 07:24:26;;;;;;;3.80;2.13;;;16.50;45.50;;;;;;6136863;23;20149;-80
2021/01/10 07:27:03;;;;;;;2.97;2.53;;;16.50;45.50;;;;;;6137421;23;20140;-80
2021/01/10 07:29:53;;;;;;;2.67;2.08;;;16.40;45.60;;;;;;6111320;23;20550;-80
2021/01/10 07:32:40;;;;;;;2.42;2.03;;;16.60;45.40;;;;;;6137688;23;20168;-80
2021/01/10 07:35:06;;;;;;;2.60;2.10;;;16.50;45.50;;;;;;6132212;23;20160;-80
2021/01/10 07:37:45;;;;;;;2.33;2.03;;;16.50;45.40;;;;;;6138210;23;20249;-80
2021/01/10 07:40:13;;;;;;;2.90;2.35;;;16.60;45.20;;;;;;6114178;23;20175;-81
2021/01/10 07:42:39;;;;;;;2.45;2.00;;;16.60;45.20;;;;;;6090312;23;20171;-81
2021/01/10 07:45:17;;;;;;;2.45;2.10;;;16.60;45.30;;;;;;6113831;23;20167;-81
2021/01/10 07:47:47;;;;;;;2.35;2.10;;;16.50;45.40;;;;;;6091797;23;20196;-81
2021/01/10 07:50:15;;;;;;;2.35;2.00;;;16.50;45.40;;;;;;6066739;23;20155;-82
2021/01/10 07:52:41;;;;;;;2.35;2.00;;;16.50;45.60;;;;;;6113558;23;20507;-82
2021/01/10 07:55:19;;;;;;;2.97;2.05;;;16.60;45.50;;;;;;6115129;23;20204;-83
2021/01/10 07:58:00;;;;;;;2.75;2.13;;;16.60;45.40;;;;;;6113039;23;20155;-82
2021/01/10 08:00:33;;;;;;;3.88;2.20;;;16.60;45.40;;;;;;6114591;23;20144;-81
2021/01/10 08:02:59;;;;;;;3.50;2.10;;;16.60;45.40;;;;;;6113773;23;20148;-81
2021/01/10 08:05:27;;;;;;;2.47;2.10;;;16.50;45.40;;;;;;6140605;23;20155;-81
2021/01/10 08:07:54;;;;;;;2.28;2.08;;;16.50;46.30;;;;;;6090407;23;20144;-81
2021/01/10 08:10:20;;;;;;;2.25;1.80;;;16.50;45.50;;;;;;6114278;23;20136;-81
2021/01/10 08:12:46;;;;;;;2.92;2.08;;;16.50;45.40;;;;;;6139896;23;20608;-82
2021/01/10 08:15:14;;;;;;;2.33;2.05;;;16.50;45.50;;;;;;6114006;23;20132;-81
2021/01/10 08:17:40;;;;;;;2.00;1.80;;;16.50;45.50;;;;;;6140691;23;20135;-81
2021/01/10 08:20:08;;;;;;;2.78;2.13;;;16.50;45.60;;;;;;6113715;23;20191;-81
2021/01/10 08:22:34;;;;;;;3.00;1.98;;;16.50;45.50;;;;;;6114479;23;20163;-82
2021/01/10 08:25:18;;;;;;;2.45;2.00;;;16.50;45.50;;;;;;6090816;23;20140;-81
2021/01/10 08:27:47;;;;;;;1.95;1.75;;;16.60;45.40;;;;;;6141096;23;20519;-82
2021/01/10 08:30:14;;;;;;;2.20;1.80;;;16.60;45.30;;;;;;6142985;23;20136;-81
2021/01/10 08:32:40;;;;;;;2.13;1.80;;;16.60;45.30;;;;;;6092635;23;20520;-81
2021/01/10 08:35:09;;;;;;;2.22;1.90;;;16.60;45.30;;;;;;6116430;23;20147;-81
2021/01/10 08:37:35;;;;;;;2.60;2.00;;;16.60;45.20;;;;;;6142678;23;20140;-81
2021/01/10 08:40:11;;;;;;;2.42;1.70;;;16.60;45.30;;;;;;6116779;23;20137;-81
2021/01/10 08:42:36;;;;;;;2.08;1.83;;;16.60;45.40;;;;;;6116757;23;20163;-81
2021/01/10 08:45:15;;;;;;;2.10;1.80;;;16.60;45.50;;;;;;6117393;23;20563;-81
2021/01/10 08:47:44;;;;;;;2.22;2.00;;;16.60;45.50;;;;;;6116552;23;20183;-81
2021/01/10 08:50:12;;;;;;;2.17;1.98;;;16.70;45.10;;;;;;6117280;23;20142;-81
2021/01/10 08:52:58;;;;;;;2.05;1.83;;;16.70;45.00;;;;;;6116073;23;20247;-81
2021/01/10 08:55:31;;;;;;;2.50;2.00;;;16.70;45.10;;;;;;6142043;23;20183;-82
2021/01/10 08:57:57;;;;;;;2.50;1.98;;;16.60;45.20;;;;;;6142250;23;20143;-82
2021/01/10 09:00:23;;;;;;;2.13;1.67;;;16.60;45.20;;;;;;6116759;23;20164;-81
2021/01/10 09:02:50;;;;;;;2.42;1.90;;;16.60;45.20;;;;;;6093053;23;20133;-81
2021/01/10 09:05:24;;;;;;;2.10;1.80;;;16.60;45.30;;;;;;6092956;23;20483;-82
2021/01/10 09:08:00;;;;;;;2.72;1.85;;;16.60;45.30;;;;;;6117105;23;20127;-82
2021/01/10 09:10:28;;;;;;;2.40;1.90;;;16.70;45.10;;;;;;6142301;23;20140;-81
2021/01/10 09:13:01;;;;;;;2.35;1.90;;;16.60;45.20;;;;;;6116761;23;20144;-81
2021/01/10 09:15:33;;;;;;;2.47;1.92;;;16.70;45.10;;;;;;6116843;23;20166;-81
2021/01/10 09:18:07;;;;;;;2.08;1.75;;;16.70;45.10;;;;;;6118249;23;20182;-81
2021/01/10 09:20:54;;;;;;;2.45;1.95;;;16.70;45.10;;;;;;6093128;23;20140;-81
2021/01/10 09:23:20;;;;;;;2.53;2.10;;;16.60;45.20;;;;;;6115532;23;20148;-81
2021/01/10 09:25:49;;;;;;;1.95;1.75;;;16.60;45.30;;;;;;6141977;23;20143;-81
2021/01/10 09:28:19;;;;;;;2.30;1.85;;;16.60;45.30;;;;;;6142969;23;20139;-81
2021/01/10 09:30:49;;;;;;;2.10;1.85;;;16.60;45.20;;;;;;6142627;23;20472;-81
2021/01/10 09:33:20;;;;;;;2.90;2.17;;;16.70;45.20;;;;;;6118516;23;20132;-81
2021/01/10 09:35:47;;;;;;;1.95;1.75;;;16.70;45.10;;;;;;6092844;23;20184;-81
2021/01/10 09:38:13;;;;;;;2.80;2.30;;;16.70;45.20;;;;;;6092916;23;20144;-81
2021/01/10 09:41:01;;;;;;;2.08;1.73;;;16.70;45.20;;;;;;6116908;23;20139;-80
2021/01/10 09:43:37;;;;;;;2.17;1.77;;;16.70;45.10;;;;;;6120479;23;20155;-81
2021/01/10 09:46:22;;;;;;;2.03;1.83;;;16.70;45.20;;;;;;6142593;23;20186;-81
2021/01/10 09:48:52;;;;;;;2.53;1.95;;;16.70;45.10;;;;;;6142783;23;20161;-81
2021/01/10 09:51:22;;;;;;;2.13;1.67;;;16.70;45.00;;;;;;6092322;23;20164;-80
2021/01/10 09:53:48;;;;;;;2.45;2.03;;;16.90;44.80;;;;;;6117042;23;20143;-81
2021/01/10 09:56:15;;;;;;;2.03;1.70;;;16.80;44.80;;;;;;6143140;23;20164;-81
2021/01/10 09:58:42;;;;;;;2.08;1.77;;;16.80;44.80;;;;;;6115878;23;20211;-81
2021/01/10 10:01:08;;;;;;;1.90;1.70;;;16.80;45.00;;;;;;6141709;23;20140;-82
2021/01/10 10:03:36;;;;;;;2.47;2.10;;;16.80;45.00;;;;;;6142629;23;20132;-81
2021/01/10 10:06:02;;;;;;;2.67;1.90;;;16.80;44.90;;;;;;6142102;23;20137;-81
2021/01/10 10:08:28;;;;;;;2.22;1.80;;;16.80;45.00;;;;;;6116877;23;20175;-81
2021/01/10 10:10:57;;;;;;;2.30;1.80;;;16.70;45.10;;;;;;6116052;23;20195;-81
2021/01/10 10:13:25;;;;;;;2.35;1.80;;;16.70;45.00;;;;;;6141606;23;20185;-81
2021/01/10 10:15:53;;;;;;;1.83;1.60;;;16.80;44.90;;;;;;6116787;23;20449;-80
2021/01/10 10:18:31;;;;;;;2.15;1.83;;;16.80;45.00;;;;;;6093255;23;20135;-81
2021/01/10 10:20:59;;;;;;;2.40;1.77;;;16.80;44.80;;;;;;6142985;23;20140;-81
2021/01/10 10:23:24;;;;;;;2.10;1.90;;;16.80;44.90;;;;;;6142122;23;20143;-81
2021/01/10 10:25:51;;;;;;;2.35;1.70;;;16.80;44.90;;;;;;6141718;23;20144;-81
2021/01/10 10:28:20;;;;;;;2.05;1.83;;;16.80;45.00;;;;;;6115634;23;20140;-81
2021/01/10 10:30:47;;;;;;;2.20;1.70;;;16.90;44.80;;;;;;6116808;23;20140;-81
2021/01/10 10:33:12;;;;;;;2.60;1.60;;;16.80;44.80;;;;;;6091813;23;20580;-81
2021/01/10 10:35:38;;;;;;;2.85;1.70;;;16.80;45.00;;;;;;6140535;23;20196;-82
2021/01/10 10:38:06;;;;;;;1.90;1.55;;;16.70;44.90;;;;;;6141488;23;20203;-81
2021/01/10 10:40:32;;;;;;;2.13;1.70;;;16.70;45.10;;;;;;6141589;23;20516;-80
2021/01/10 10:42:59;;;;;;;2.13;1.67;;;16.80;45.10;;;;;;6068681;23;20144;-81
2021/01/10 10:45:28;;;;;;;2.55;1.98;;;16.80;45.00;;;;;;6116606;23;20136;-81
2021/01/10 10:47:57;;;;;;;3.20;1.98;;;16.80;44.90;;;;;;6116478;23;20140;-82
2021/01/10 10:50:33;;;;;;;1.77;1.50;;;16.80;45.00;;;;;;6091365;23;20144;-82
2021/01/10 10:52:59;;;;;;;1.75;1.60;;;16.80;44.90;;;;;;6141022;23;20520;-81
2021/01/10 10:55:26;;;;;;;2.03;1.80;;;16.70;45.70;;;;;;6116050;23;20144;-82
2021/01/10 10:57:53;;;;;;;2.25;1.80;;;16.70;45.20;;;;;;6115113;23;20135;-82
2021/01/10 11:00:21;;;;;;;1.58;1.42;;;16.60;45.20;;;;;;6142485;23;20152;-81
2021/01/10 11:02:46;;;;;;;1.63;1.52;;;16.70;45.20;;;;;;6142013;23;20144;-82
2021/01/10 11:05:14;;;;;;;2.10;1.83;;;16.70;45.20;;;;;;6141785;23;20143;-82
2021/01/10 11:07:39;;;;;;;2.00;1.80;;;16.70;45.20;;;;;;6141448;23;20168;-82
2021/01/10 11:10:06;;;;;;;1.63;1.52;;;16.70;45.20;;;;;;6116448;23;20136;-81
2021/01/10 11:12:32;;;;;;;2.50;1.90;;;16.70;45.20;;;;;;6116076;23;20194;-81
2021/01/10 11:15:01;;;;;;;2.05;1.85;;;16.80;45.10;;;;;;6141536;23;20128;-82
2021/01/10 11:17:27;;;;;;;2.55;2.00;;;16.80;45.00;;;;;;6141417;23;20136;-82
2021/01/10 11:19:52;;;;;;;2.15;1.85;;;16.70;45.00;;;;;;6141029;23;20121;-82
2021/01/10 11:22:29;;;;;;;2.13;1.70;;;16.80;45.10;;;;;;6115660;23;20164;-82
2021/01/10 11:24:55;;;;;;;2.00;1.60;;;16.70;45.10;;;;;;6141406;23;20140;-82
2021/01/10 11:27:21;;;;;;;2.20;1.73;;;16.80;45.00;;;;;;6114835;23;20543;-81
2021/01/10 11:29:48;;;;;;;1.98;1.77;;;16.80;45.00;;;;;;6141211;23;20167;-83
2021/01/10 11:32:14;;;;;;;2.10;1.63;;;16.70;45.10;;;;;;6141351;23;20183;-82
2021/01/10 11:34:40;;;;;;;1.80;1.60;;;16.70;45.10;;;;;;6115526;23;20211;-82
2021/01/10 11:37:07;;;;;;;1.67;1.50;;;16.70;45.10;;;;;;6140829;23;20183;-82
2021/01/10 11:39:32;;;;;;;1.73;1.60;;;16.70;45.10;;;;;;6141848;23;20159;-81
2021/01/10 11:41:59;;;;;;;1.85;1.63;;;16.80;44.90;;;;;;6141150;23;20141;-82
2021/01/10 11:44:28;;;;;;;1.80;1.50;;;16.90;44.80;;;;;;6115515;23;20144;-81
2021/01/10 11:46:59;;;;;;;1.58;1.48;;;16.90;44.70;;;;;;6115702;23;20140;-81
2021/01/10 11:49:28;;;;;;;2.05;1.65;;;16.90;44.90;;;;;;6141367;23;20140;-81
2021/01/10 11:51:58;;;;;;;2.00;1.63;;;16.90;44.90;;;;;;6115901;23;20168;-82
2021/01/10 11:54:23;;;;;;;2.05;1.63;;;16.80;45.00;;;;;;6141339;23;20148;-81
2021/01/10 11:56:51;;;;;;;1.83;1.65;;;16.70;45.20;;;;;;6141691;23;20132;-82
2021/01/10 11:59:17;;;;;;;1.48;1.33;;;16.70;45.30;;;;;;6141697;23;20141;-81
2021/01/10 12:01:43;;;;;;;2.70;1.67;;;16.80;45.10;;;;;;6141403;23;20634;-81
2021/01/10 12:04:11;;;;;;;1.48;1.38;;;16.80;45.10;;;;;;6091045;23;20158;-81
2021/01/10 12:06:38;;;;;;;2.15;1.83;;;16.80;45.20;;;;;;6116065;23;20341;-82
2021/01/10 12:09:09;;;;;;;2.00;1.80;;;16.80;45.10;;;;;;6115421;23;20136;-81
2021/01/10 12:11:36;;;;;;;1.70;1.50;;;16.80;45.10;;;;;;6140812;23;20315;-81
2021/01/10 12:14:02;;;;;;;2.13;1.73;;;16.70;45.10;;;;;;6140435;23;20154;-81
2021/01/10 12:16:30;;;;;;;1.92;1.67;;;16.70;45.30;;;;;;6140619;23;20504;-82
2021/01/10 12:19:02;;;;;;;1.88;1.60;;;16.70;45.20;;;;;;6141306;23;20139;-81
2021/01/10 12:21:29;;;;;;;1.80;1.70;;;16.80;45.10;;;;;;6141160;23;20559;-82
2021/01/10 12:23:57;;;;;;;1.85;1.60;;;16.70;45.10;;;;;;6140017;23;20136;-81
2021/01/10 12:26:24;;;;;;;2.30;1.50;;;16.80;45.10;;;;;;6140746;23;20151;-82
2021/01/10 12:28:49;;;;;;;1.48;1.15;;;16.80;45.10;;;;;;6091431;23;20136;-81
2021/01/10 12:31:17;;;;;;;1.73;1.52;;;16.80;45.10;;;;;;6140593;23;20168;-82
2021/01/10 12:33:43;;;;;;;2.17;1.83;;;16.80;45.20;;;;;;6114487;23;20139;-81
2021/01/10 12:36:09;;;;;;;1.73;1.40;;;16.80;45.10;;;;;;6141125;23;20207;-82
2021/01/10 12:38:37;;;;;;;3.13;1.55;;;16.80;45.10;;;;;;6115859;23;20179;-82
2021/01/10 12:41:04;;;;;;;1.65;1.40;;;16.70;45.20;;;;;;6140473;23;20222;-81
2021/01/10 12:43:39;;;;;;;2.50;1.80;;;16.80;45.10;;;;;;6141453;23;20201;-82
2021/01/10 12:46:13;;;;;;;1.70;1.52;;;16.80;45.10;;;;;;6140242;23;20159;-81
2021/01/10 12:48:40;;;;;;;1.60;1.40;;;16.80;45.10;;;;;;6114921;23;20178;-82
2021/01/10 12:51:07;;;;;;;1.67;1.50;;;16.80;45.10;;;;;;6139942;23;20175;-81
2021/01/10 12:53:41;;;;;;;2.00;1.50;;;16.80;45.10;;;;;;6114224;23;20144;-81
2021/01/10 12:56:14;;;;;;;1.52;1.42;;;16.80;45.20;;;;;;6114507;23;20132;-81
2021/01/10 12:58:41;;;;;;;1.77;1.52;;;16.80;45.20;;;;;;6115058;23;20133;-81
2021/01/10 13:01:07;;;;;;;1.67;1.58;;;16.80;45.20;;;;;;6141540;23;20183;-81